Time;durP1;ratioP1;P1;durP2;ratioP2;P2;SDS_P1;SDS_P2;PMS_P1;PMS_P2;Temp;Humidity;BMP_temperature;BMP_pressure;BME280_temperature;BME280_humidity;BME280_pressure;Samples;Min_cycle;Max_cycle;Signal;HPM_P1;HPM_P2
2022/07/05 00:01:00;;;;;;;2.85;2.65;;;;;;;21.01;62.85;99494.81;1731993;82;21083;-76
2022/07/05 00:03:26;;;;;;;4.28;2.70;;;;;;;20.97;63.26;99498.22;1762574;81;21107;-76
2022/07/05 00:05:53;;;;;;;3.00;2.65;;;;;;;20.93;63.37;99494.55;1741595;81;21433;-76
2022/07/05 00:08:20;;;;;;;3.65;2.60;;;;;;;20.90;63.54;99496.16;1741554;82;21111;-76
2022/07/05 00:10:47;;;;;;;3.12;2.80;;;;;;;20.85;63.87;99507.20;1741407;81;21657;-76
2022/07/05 00:13:13;;;;;;;3.00;2.80;;;;;;;20.80;63.69;99499.19;1754172;81;22051;-76
2022/07/05 00:15:40;;;;;;;3.10;2.62;;;;;;;20.74;63.93;99500.48;1754460;81;21174;-76
2022/07/05 00:18:07;;;;;;;3.58;2.70;;;;;;;20.67;63.96;99496.59;1754204;81;21130;-76
2022/07/05 00:20:33;;;;;;;4.40;2.85;;;;;;;20.63;63.90;99498.66;1754330;81;21000;-76
2022/07/05 00:23:00;;;;;;;3.20;2.75;;;;;;;20.61;63.78;99501.91;1754063;81;21075;-76
2022/07/05 00:25:27;;;;;;;3.45;2.87;;;;;;;20.59;63.78;99495.34;1754334;81;21404;-76
2022/07/05 00:27:54;;;;;;;4.65;2.60;;;;;;;20.58;63.89;99500.31;1754110;81;21067;-76
2022/07/05 00:30:20;;;;;;;4.83;2.92;;;;;;;20.56;64.19;99496.03;1754165;81;21574;-76
2022/07/05 00:32:47;;;;;;;4.30;3.12;;;;;;;20.50;64.56;99500.53;1754025;81;21067;-76
2022/07/05 00:35:14;;;;;;;3.12;2.90;;;;;;;20.44;64.59;99500.98;1772122;80;21103;-76
2022/07/05 00:37:41;;;;;;;4.45;2.92;;;;;;;20.36;64.73;99502.43;1775687;80;21047;-76
2022/07/05 00:40:09;;;;;;;2.87;2.67;;;;;;;20.30;65.00;99508.23;1775711;80;21075;-76
2022/07/05 00:42:35;;;;;;;3.22;3.00;;;;;;;20.26;65.06;99509.44;1775796;80;21751;-76
2022/07/05 00:45:06;;;;;;;4.12;2.98;;;;;;;20.21;65.26;99500.92;1775443;80;21503;-76
2022/07/05 00:47:32;;;;;;;3.17;2.80;;;;;;;20.19;65.51;99508.17;1775844;80;21589;-76
2022/07/05 00:49:59;;;;;;;3.45;2.95;;;;;;;20.14;65.40;99511.20;1775557;80;21059;-76
2022/07/05 00:52:25;;;;;;;6.28;3.15;;;;;;;20.11;65.40;99510.59;1775734;80;20996;-76
2022/07/05 00:54:52;;;;;;;3.50;2.95;;;;;;;20.09;65.72;99507.16;1775428;80;21772;-76
2022/07/05 00:57:21;;;;;;;3.10;2.90;;;;;;;20.07;65.74;99507.76;1775533;80;21534;-76
2022/07/05 00:59:49;;;;;;;3.50;3.20;;;;;;;20.03;65.79;99508.47;1775881;80;20996;-76
2022/07/05 01:02:16;;;;;;;4.08;3.30;;;;;;;20.00;65.96;99512.20;1775542;80;21008;-76
2022/07/05 01:04:42;;;;;;;3.45;2.80;;;;;;;19.95;66.38;99511.70;1775628;80;21059;-76
2022/07/05 01:07:09;;;;;;;4.70;3.12;;;;;;;19.91;66.43;99512.91;1775768;80;21155;-76
2022/07/05 01:09:36;;;;;;;3.27;3.08;;;;;;;19.89;66.64;99509.95;1775739;80;20981;-76
2022/07/05 01:12:03;;;;;;;3.80;3.50;;;;;;;19.85;66.75;99512.01;1775568;80;21574;-76
2022/07/05 01:14:30;;;;;;;5.92;3.30;;;;;;;19.81;66.92;99509.20;1775698;80;21004;-76
2022/07/05 01:16:57;;;;;;;7.30;3.52;;;;;;;19.78;66.82;99505.42;1775648;80;21047;-76
2022/07/05 01:19:23;;;;;;;5.37;3.27;;;;;;;19.74;66.88;99502.09;1775860;80;21107;-76
2022/07/05 01:21:51;;;;;;;3.62;3.42;;;;;;;19.72;67.02;99501.82;1749842;80;21115;-76
2022/07/05 01:24:18;;;;;;;3.70;3.20;;;;;;;19.68;67.05;99502.03;1750286;80;21016;-76
2022/07/05 01:26:48;;;;;;;4.58;3.90;;;;;;;19.67;67.13;99500.35;1775416;80;21126;-76
2022/07/05 01:29:16;;;;;;;5.50;3.30;;;;;;;19.65;67.23;99500.95;1775408;80;20992;-76
2022/07/05 01:31:42;;;;;;;3.67;3.33;;;;;;;19.60;67.28;99503.11;1775773;80;21757;-76
2022/07/05 01:34:09;;;;;;;4.22;3.22;;;;;;;19.59;67.32;99500.05;1778498;80;21067;-76
2022/07/05 01:36:35;;;;;;;5.75;3.58;;;;;;;19.59;67.51;99501.38;1788143;80;20992;-76
2022/07/05 01:39:04;;;;;;;4.08;3.52;;;;;;;19.56;67.54;99500.27;1787629;80;21067;-76
2022/07/05 01:41:32;;;;;;;3.50;3.30;;;;;;;19.52;67.57;99504.13;1787770;80;21004;-76
2022/07/05 01:43:59;;;;;;;3.98;3.10;;;;;;;19.50;67.85;99503.37;1787605;80;21127;-76
2022/07/05 01:46:28;;;;;;;4.30;3.87;;;;;;;19.52;68.35;99505.92;1787632;80;21042;-76
2022/07/05 01:48:57;;;;;;;6.20;3.20;;;;;;;19.52;68.60;99509.47;1787955;80;21019;-77
2022/07/05 01:51:27;;;;;;;9.30;3.67;;;;;;;19.48;68.93;99498.63;1752656;80;21549;-76
2022/07/05 01:53:53;;;;;;;4.05;3.50;;;;;;;19.46;68.95;99504.56;1745728;82;20976;-76
2022/07/05 01:56:20;;;;;;;5.00;3.52;;;;;;;19.45;68.77;99504.18;1736071;82;21777;-76
2022/07/05 01:58:47;;;;;;;4.08;3.50;;;;;;;19.46;68.93;99504.56;1734836;82;21499;-76
2022/07/05 02:01:13;;;;;;;4.37;3.40;;;;;;;19.47;69.04;99506.28;1762294;81;20977;-77
2022/07/05 02:03:40;;;;;;;3.85;3.55;;;;;;;19.47;69.03;99508.46;1749433;79;21055;-76
2022/07/05 02:06:10;;;;;;;6.20;3.58;;;;;;;19.48;68.98;99504.84;1743414;82;21044;-77
2022/07/05 02:08:36;;;;;;;3.85;3.55;;;;;;;19.47;69.30;99502.28;1808774;79;21785;-76
2022/07/05 02:11:05;;;;;;;4.12;3.47;;;;;;;19.47;69.40;99507.62;1808329;79;20977;-76
2022/07/05 02:13:31;;;;;;;4.15;3.12;;;;;;;19.48;69.41;99507.97;1808669;79;20993;-77
2022/07/05 02:15:58;;;;;;;7.28;3.98;;;;;;;19.47;69.19;99508.46;1808517;79;20992;-77
2022/07/05 02:18:25;;;;;;;4.20;3.25;;;;;;;19.47;69.44;99514.29;1808514;79;20936;-76
2022/07/05 02:20:53;;;;;;;4.35;3.50;;;;;;;19.46;69.60;99513.41;1808656;79;21074;-77
2022/07/05 02:23:20;;;;;;;6.45;3.52;;;;;;;19.46;69.98;99512.57;1808492;79;21023;-77
2022/07/05 02:25:47;;;;;;;5.17;3.45;;;;;;;19.45;70.26;99518.40;1808425;79;20968;-76
2022/07/05 02:28:15;;;;;;;9.03;3.42;;;;;;;19.44;70.31;99511.83;1808552;79;21023;-77
2022/07/05 02:30:44;;;;;;;4.00;3.62;;;;;;;19.45;70.33;99509.52;1808420;79;21044;-77
2022/07/05 02:33:11;;;;;;;5.15;3.10;;;;;;;19.47;70.22;99508.95;1808358;79;21168;-77
2022/07/05 02:35:37;;;;;;;4.22;3.15;;;;;;;19.50;70.69;99506.03;1794878;79;21547;-76
2022/07/05 02:38:04;;;;;;;4.05;3.22;;;;;;;19.53;70.45;99505.82;1789997;80;21024;-76
2022/07/05 02:40:31;;;;;;;3.58;3.12;;;;;;;19.57;70.92;99509.99;1790224;80;21048;-77
2022/07/05 02:42:59;;;;;;;3.52;3.22;;;;;;;19.62;70.58;99507.00;1791833;79;21570;-76
2022/07/05 02:45:25;;;;;;;3.47;3.17;;;;;;;19.66;70.62;99508.47;1790450;80;21517;-77
2022/07/05 02:47:54;;;;;;;3.60;3.30;;;;;;;19.72;71.21;99499.15;1790047;79;21447;-77
2022/07/05 02:50:21;;;;;;;4.33;3.50;;;;;;;19.79;71.84;99512.47;1792244;79;21522;-77
2022/07/05 02:52:49;;;;;;;3.58;3.27;;;;;;;19.85;71.23;99516.02;1789949;80;21012;-77
2022/07/05 02:55:16;;;;;;;3.50;3.20;;;;;;;19.90;70.83;99511.19;1790095;79;21007;-76
2022/07/05 02:57:43;;;;;;;3.83;3.60;;;;;;;19.97;70.37;99504.45;1790323;80;22268;-76
2022/07/05 03:00:11;;;;;;;10.82;3.33;;;;;;;20.06;69.96;99508.74;1790020;80;21711;-76
2022/07/05 03:02:40;;;;;;;3.85;3.20;;;;;;;20.14;70.49;99510.33;1790182;79;21066;-77
2022/07/05 03:05:08;;;;;;;5.85;3.85;;;;;;;20.21;70.20;99511.60;1789977;80;21517;-77
2022/07/05 03:07:37;;;;;;;3.85;3.37;;;;;;;20.29;69.87;99508.34;1790543;79;20972;-77
2022/07/05 03:10:05;;;;;;;5.55;3.58;;;;;;;20.36;69.84;99509.11;1789857;80;21734;-77
2022/07/05 03:12:33;;;;;;;5.33;3.58;;;;;;;20.44;69.59;99512.52;1789998;80;21016;-77
2022/07/05 03:15:00;;;;;;;4.85;3.80;;;;;;;20.52;70.40;99514.63;1790085;80;21052;-77
2022/07/05 03:17:27;;;;;;;5.45;3.75;;;;;;;20.58;70.55;99507.48;1790098;80;21041;-77
2022/07/05 03:19:53;;;;;;;6.85;3.67;;;;;;;20.66;70.69;99505.11;1790485;80;20965;-77
2022/07/05 03:22:21;;;;;;;3.77;3.50;;;;;;;20.73;70.72;99509.01;1790235;79;22338;-76
2022/07/05 03:24:48;;;;;;;4.15;3.10;;;;;;;20.83;70.53;99512.29;1790280;80;20926;-77
2022/07/05 03:27:15;;;;;;;6.97;3.52;;;;;;;20.91;70.04;99523.25;1789986;80;21977;-77
2022/07/05 03:29:42;;;;;;;4.03;3.52;;;;;;;20.98;69.36;99517.81;1791944;79;21565;-77
2022/07/05 03:32:09;;;;;;;3.85;3.52;;;;;;;21.06;69.85;99514.02;1790343;80;21542;-76
2022/07/05 03:34:38;;;;;;;5.25;3.62;;;;;;;21.17;69.45;99523.06;1791791;79;21193;-76
2022/07/05 03:37:06;;;;;;;5.47;3.90;;;;;;;21.24;68.74;99529.63;1797856;79;21044;-76
2022/07/05 03:39:32;;;;;;;10.43;3.90;;;;;;;21.30;68.80;99529.12;1798115;79;20997;-77
2022/07/05 03:41:59;;;;;;;5.28;3.77;;;;;;;21.34;68.15;99529.25;1798411;79;21063;-76
2022/07/05 03:44:27;;;;;;;4.85;3.98;;;;;;;21.39;67.34;99522.20;1798093;79;20964;-76
2022/07/05 03:46:54;;;;;;;4.72;3.67;;;;;;;21.42;66.75;99524.15;1798442;79;21094;-77
2022/07/05 03:49:23;;;;;;;7.37;4.20;;;;;;;21.47;66.42;99521.98;1798242;79;21020;-77
2022/07/05 03:51:49;;;;;;;4.62;3.83;;;;;;;21.50;67.17;99528.44;1786072;79;21070;-77
2022/07/05 03:54:16;;;;;;;5.00;4.05;;;;;;;21.58;68.50;99525.62;1771092;81;21541;-77
2022/07/05 03:56:43;;;;;;;9.25;4.20;;;;;;;21.65;68.85;99524.14;1771034;81;20944;-76
2022/07/05 03:59:11;;;;;;;4.90;4.50;;;;;;;21.68;69.02;99525.24;1771058;81;21081;-77
2022/07/05 04:01:38;;;;;;;7.03;4.53;;;;;;;21.73;68.05;99521.70;1770826;81;21078;-77
2022/07/05 04:04:05;;;;;;;10.13;4.30;;;;;;;21.79;67.57;99525.23;1771031;81;21011;-76
2022/07/05 04:06:31;;;;;;;11.43;4.60;;;;;;;21.85;67.01;99530.07;1775102;79;21576;-77
2022/07/05 04:08:59;;;;;;;7.92;4.35;;;;;;;21.91;66.49;99524.72;1770963;80;21576;-76
2022/07/05 04:11:25;;;;;;;6.00;4.35;;;;;;;21.98;65.95;99529.09;1771102;81;21622;-76
2022/07/05 04:13:54;;;;;;;5.55;4.47;;;;;;;22.05;65.21;99522.23;1770832;81;21015;-77
2022/07/05 04:16:22;;;;;;;5.53;4.60;;;;;;;22.09;64.75;99523.70;1771133;81;21026;-76
2022/07/05 04:18:48;;;;;;;6.85;5.03;;;;;;;22.13;64.89;99522.46;1770795;81;21502;-77
2022/07/05 04:21:15;;;;;;;10.32;4.62;;;;;;;22.15;65.15;99523.67;1771124;81;21951;-77
2022/07/05 04:23:41;;;;;;;8.90;4.60;;;;;;;22.16;64.94;99520.03;1770602;81;21565;-76
2022/07/05 04:26:09;;;;;;;13.45;4.92;;;;;;;22.14;64.69;99517.48;1770829;81;21463;-76
2022/07/05 04:28:38;;;;;;;6.42;4.70;;;;;;;22.16;64.82;99511.99;1770777;80;20986;-77
2022/07/05 04:31:07;;;;;;;10.40;5.30;;;;;;;22.18;64.92;99516.23;1770865;81;21455;-76
2022/07/05 04:33:35;;;;;;;7.65;4.45;;;;;;;22.25;64.86;99516.07;1771249;80;21497;-76
2022/07/05 04:36:04;;;;;;;5.72;4.65;;;;;;;22.31;64.94;99513.89;1789829;79;20962;-77
2022/07/05 04:38:31;;;;;;;6.35;4.50;;;;;;;22.35;64.46;99518.03;1800430;78;21526;-77
2022/07/05 04:40:59;;;;;;;8.05;4.50;;;;;;;22.43;64.32;99512.38;1800399;78;21098;-76
2022/07/05 04:43:26;;;;;;;13.45;4.65;;;;;;;22.51;63.98;99510.41;1800428;79;21037;-76
2022/07/05 04:45:53;;;;;;;8.65;4.35;;;;;;;22.60;64.12;99510.11;1800765;79;21075;-77
2022/07/05 04:48:20;;;;;;;6.75;4.65;;;;;;;22.68;64.51;99510.78;1800309;79;21088;-77
2022/07/05 04:50:47;;;;;;;7.45;4.25;;;;;;;22.76;64.27;99508.30;1800763;79;20976;-77
2022/07/05 04:53:13;;;;;;;5.92;4.35;;;;;;;22.82;63.84;99508.63;1800269;78;21561;-76
2022/07/05 04:55:41;;;;;;;8.83;4.50;;;;;;;22.91;63.95;99511.00;1800601;78;20987;-77
2022/07/05 04:58:07;;;;;;;10.05;4.28;;;;;;;22.99;63.88;99512.53;1800627;79;22032;-76
2022/07/05 05:00:34;;;;;;;9.05;4.62;;;;;;;23.08;63.92;99512.75;1800575;79;21219;-76
2022/07/05 05:03:01;;;;;;;6.12;4.12;;;;;;;23.14;63.58;99509.04;1800184;79;20999;-77
2022/07/05 05:05:28;;;;;;;6.25;4.28;;;;;;;23.22;63.23;99507.04;1800471;79;21035;-76
2022/07/05 05:07:56;;;;;;;8.20;4.67;;;;;;;23.31;63.02;99511.59;1800729;78;21024;-75
2022/07/05 05:10:24;;;;;;;8.70;4.40;;;;;;;23.41;63.25;99508.11;1800406;78;21011;-77
2022/07/05 05:12:51;;;;;;;10.30;4.00;;;;;;;23.47;63.26;99503.05;1800850;79;21474;-76
2022/07/05 05:15:20;;;;;;;6.00;4.15;;;;;;;23.57;63.70;99511.14;1800493;79;21052;-76
2022/07/05 05:17:47;;;;;;;8.50;3.80;;;;;;;23.65;63.19;99513.95;1800621;79;21061;-76
2022/07/05 05:20:17;;;;;;;5.22;4.15;;;;;;;23.74;63.32;99517.18;1800388;79;20992;-76
2022/07/05 05:22:44;;;;;;;9.98;4.22;;;;;;;23.83;63.25;99514.69;1800575;79;21321;-76
2022/07/05 05:25:12;;;;;;;5.40;3.70;;;;;;;23.88;63.55;99514.63;1800699;79;21466;-76
2022/07/05 05:27:48;;;;;;;7.55;3.92;;;;;;;23.93;63.82;99520.42;1800642;79;21452;-76
2022/07/05 05:30:16;;;;;;;;;;;;;;;24.00;63.97;99518.03;1803354;79;21151;-77
2022/07/05 05:32:46;;;;;;;5.55;4.05;;;;;;;24.07;64.74;99515.16;1800456;79;20646;-76
2022/07/05 05:35:13;;;;;;;6.35;3.85;;;;;;;24.15;64.48;99526.54;1801774;79;21141;-77
2022/07/05 05:37:51;;;;;;;6.12;3.77;;;;;;;24.22;64.63;99524.14;1803381;79;21118;-76
2022/07/05 05:40:19;;;;;;;6.03;4.08;;;;;;;24.29;64.42;99525.27;1787650;79;21051;-77
2022/07/05 05:42:46;;;;;;;4.42;3.72;;;;;;;24.35;64.41;99527.91;1787046;79;21091;-77
2022/07/05 05:45:16;;;;;;;9.10;3.58;;;;;;;24.40;64.33;99522.95;1765072;80;21685;-76
2022/07/05 05:47:54;;;;;;;3.75;3.45;;;;;;;24.47;64.23;99523.57;1786715;80;21051;-76
2022/07/05 05:50:24;;;;;;;8.30;3.70;;;;;;;24.56;63.51;99529.13;1794267;79;21116;-76
2022/07/05 05:52:52;;;;;;;5.05;4.17;;;;;;;24.63;62.74;99519.51;1761913;81;21543;-77
2022/07/05 05:55:23;;;;;;;9.45;4.08;;;;;;;24.70;63.08;99519.28;1741294;81;21588;-77
2022/07/05 05:57:52;;;;;;;5.55;4.05;;;;;;;24.78;63.15;99522.10;1741317;82;21578;-77
2022/07/05 06:00:20;;;;;;;5.35;3.55;;;;;;;24.88;62.58;99521.22;1741147;82;21055;-77
2022/07/05 06:02:49;;;;;;;8.68;4.28;;;;;;;24.99;61.57;99519.20;1742801;82;21126;-76
2022/07/05 06:05:19;;;;;;;7.25;3.90;;;;;;;25.11;61.41;99516.34;1716337;82;21102;-77
2022/07/05 06:07:54;;;;;;;8.20;4.00;;;;;;;25.23;60.82;99521.89;1741850;81;21113;-76
2022/07/05 06:10:30;;;;;;;6.97;4.50;;;;;;;25.33;60.11;99525.43;1754838;81;21012;-77
2022/07/05 06:13:02;;;;;;;10.15;4.22;;;;;;;25.44;60.03;99521.72;1756786;81;21076;-77
2022/07/05 06:15:34;;;;;;;6.47;4.08;;;;;;;25.56;59.86;99521.02;1756332;81;21252;-76
2022/07/05 06:18:07;;;;;;;9.88;4.70;;;;;;;25.67;59.40;99524.00;1756879;81;21339;-77
2022/07/05 06:20:46;;;;;;;7.72;4.37;;;;;;;25.78;58.60;99518.41;1756561;81;22068;-77
2022/07/05 06:23:15;;;;;;;13.05;4.37;;;;;;;25.87;57.75;99517.52;1756701;81;20989;-77
2022/07/05 06:25:43;;;;;;;11.00;4.58;;;;;;;25.98;56.75;99517.83;1723588;81;21525;-76
2022/07/05 06:28:16;;;;;;;7.80;4.40;;;;;;;26.09;56.29;99514.05;1756555;81;22206;-77
2022/07/05 06:30:46;;;;;;;11.10;4.55;;;;;;;26.17;56.01;99515.48;1756396;81;21052;-77
2022/07/05 06:33:13;;;;;;;10.93;5.03;;;;;;;26.27;56.66;99513.55;1756481;81;21001;-77
2022/07/05 06:35:45;;;;;;;9.25;4.22;;;;;;;26.39;56.67;99517.38;1756367;81;21076;-76
2022/07/05 06:38:17;;;;;;;7.33;3.95;;;;;;;26.48;56.26;99514.59;1722601;81;21056;-77
2022/07/05 06:40:44;;;;;;;9.55;4.40;;;;;;;26.61;55.82;99513.34;1775422;80;21129;-77
2022/07/05 06:43:13;;;;;;;10.48;4.62;;;;;;;26.73;55.48;99513.96;1776318;80;21078;-76
2022/07/05 06:45:48;;;;;;;9.63;4.53;;;;;;;26.83;55.96;99510.18;1776648;80;21079;-77
2022/07/05 06:48:21;;;;;;;8.15;4.37;;;;;;;26.94;55.67;99515.80;1776118;80;21557;-76
2022/07/05 06:50:52;;;;;;;;;;;;;;;27.03;54.70;99520.27;1753495;80;21107;-76
2022/07/05 06:53:27;;;;;;;15.03;4.37;;;;;;;27.12;54.14;99512.19;1725059;80;21285;-77
2022/07/05 06:55:53;;;;;;;17.52;4.60;;;;;;;27.19;54.12;99514.62;1776098;80;21079;-76
2022/07/05 06:58:20;;;;;;;11.78;4.65;;;;;;;27.27;53.34;99513.31;1776567;80;21066;-77
2022/07/05 07:00:46;;;;;;;13.22;4.62;;;;;;;27.34;53.30;99508.98;1776269;80;21031;-76
2022/07/05 07:03:13;;;;;;;12.55;4.20;;;;;;;27.43;53.13;99517.97;1776360;80;21114;-76
2022/07/05 07:05:39;;;;;;;12.95;4.83;;;;;;;27.51;53.08;99514.47;1776417;80;21201;-76
2022/07/05 07:10:52;;;;;;;10.72;3.83;;;;;;;27.72;52.33;99516.72;1776428;80;21035;-76
2022/07/05 07:13:19;;;;;;;8.35;3.58;;;;;;;27.84;51.88;99521.32;1776261;80;21020;-75
2022/07/05 07:15:47;;;;;;;11.85;3.70;;;;;;;27.93;51.24;99525.27;1776595;80;21007;-75
2022/07/05 07:18:15;;;;;;;5.25;3.33;;;;;;;28.02;50.70;99517.19;1776255;80;21221;-76
2022/07/05 07:20:42;;;;;;;3.33;2.85;;;;;;;28.09;49.37;99513.66;1776774;80;21000;-75
2022/07/05 07:23:09;;;;;;;4.92;2.60;;;;;;;28.16;48.18;99503.86;1776341;80;21028;-75
2022/07/05 07:25:35;;;;;;;4.60;2.67;;;;;;;28.25;48.47;99509.28;1776818;80;21036;-76
2022/07/05 07:28:01;;;;;;;3.45;2.30;;;;;;;28.36;48.14;99514.34;1776501;80;21023;-77
2022/07/05 07:30:28;;;;;;;4.60;1.90;;;;;;;28.47;47.00;99518.59;1776447;80;21123;-76
2022/07/05 07:32:56;;;;;;;7.95;2.10;;;;;;;28.55;45.71;99517.24;1776206;80;21020;-76
2022/07/05 07:35:23;;;;;;;5.75;2.22;;;;;;;28.64;45.60;99518.11;1776315;80;21044;-76
2022/07/05 07:37:50;;;;;;;4.40;2.40;;;;;;;28.71;44.89;99518.63;1776586;80;21134;-77
2022/07/05 07:40:18;;;;;;;7.30;2.87;;;;;;;28.79;44.27;99511.51;1776438;80;21114;-77
2022/07/05 07:42:44;;;;;;;4.53;2.27;;;;;;;28.87;43.96;99516.92;1776844;80;21510;-76
2022/07/05 07:45:11;;;;;;;6.30;2.92;;;;;;;28.90;44.20;99512.00;1770538;80;21090;-77
2022/07/05 07:47:37;;;;;;;4.42;2.70;;;;;;;28.96;44.11;99509.09;1767038;81;21102;-76
2022/07/05 07:50:06;;;;;;;5.83;2.40;;;;;;;29.05;44.31;99512.63;1798504;79;21063;-76
2022/07/05 07:52:34;;;;;;;4.83;2.60;;;;;;;29.11;44.11;99510.59;1798368;79;21595;-76
2022/07/05 07:55:01;;;;;;;8.55;2.65;;;;;;;29.20;43.91;99503.31;1798711;79;21593;-76
2022/07/05 07:57:28;;;;;;;4.65;2.75;;;;;;;29.28;43.34;99512.26;1798268;79;21645;-76
2022/07/05 07:59:55;;;;;;;8.35;2.60;;;;;;;29.35;42.68;99510.21;1798299;79;21597;-76
2022/07/05 08:02:22;;;;;;;4.45;2.55;;;;;;;29.40;42.49;99501.05;1798373;79;21641;-76
2022/07/05 08:04:53;;;;;;;3.42;2.50;;;;;;;29.46;42.81;99502.55;1798471;79;21676;-76
2022/07/05 08:07:20;;;;;;;8.23;3.50;;;;;;;29.53;42.04;99501.33;1798431;79;21181;-77
2022/07/05 08:09:46;;;;;;;7.65;3.20;;;;;;;29.58;41.71;99492.16;1798448;79;21325;-77
2022/07/05 08:12:13;;;;;;;4.05;2.83;;;;;;;29.65;42.69;99489.06;1798377;79;21127;-76
2022/07/05 08:14:39;;;;;;;6.22;2.92;;;;;;;29.71;42.43;99492.11;1792773;79;21061;-76
2022/07/05 08:17:10;;;;;;;9.65;3.10;;;;;;;29.77;42.53;99480.57;1753594;80;21087;-77
2022/07/05 08:22:19;;;;;;;5.90;2.70;;;;;;;29.91;43.05;99477.11;1728112;83;21067;-76
2022/07/05 08:24:46;;;;;;;3.55;2.40;;;;;;;30.00;42.44;99476.01;1745990;81;21336;-77
2022/07/05 08:27:13;;;;;;;5.28;3.00;;;;;;;30.06;42.46;99467.69;1745683;82;21041;-76
2022/07/05 08:29:41;;;;;;;7.90;2.50;;;;;;;30.14;41.81;99469.47;1746004;82;21072;-76
2022/07/05 08:32:09;;;;;;;3.30;2.60;;;;;;;30.21;41.72;99473.14;1745696;82;21207;-76
2022/07/05 08:34:35;;;;;;;3.85;2.27;;;;;;;30.27;41.17;99468.35;1745904;81;21026;-77
2022/07/05 08:37:02;;;;;;;4.40;2.60;;;;;;;30.37;41.45;99463.55;1745677;81;21087;-76
2022/07/05 08:39:29;;;;;;;8.48;2.75;;;;;;;30.44;40.89;99469.61;1745879;82;21521;-76
2022/07/05 08:41:57;;;;;;;3.65;2.70;;;;;;;30.52;40.81;99476.33;1745440;81;21560;-76
2022/07/05 08:44:23;;;;;;;5.50;2.42;;;;;;;30.60;39.72;99468.11;1745502;82;21137;-76
2022/07/05 08:46:52;;;;;;;3.08;2.40;;;;;;;30.66;40.18;99469.23;1745438;81;20990;-76
2022/07/05 08:49:23;;;;;;;3.58;2.75;;;;;;;30.74;38.57;99474.59;1745335;82;21127;-76
2022/07/05 08:51:50;;;;;;;5.28;2.10;;;;;;;30.80;38.45;99471.64;1745664;82;21550;-77
2022/07/05 08:54:17;;;;;;;5.95;2.67;;;;;;;30.85;39.63;99475.50;1745261;81;21693;-77
2022/07/05 08:56:44;;;;;;;3.05;2.45;;;;;;;30.92;39.23;99474.25;1745707;81;21477;-77
2022/07/05 08:59:10;;;;;;;4.25;2.55;;;;;;;31.00;39.15;99475.55;1745410;82;20988;-76
2022/07/05 09:01:37;;;;;;;6.55;2.50;;;;;;;31.13;40.47;99469.97;1745383;82;21088;-76
2022/07/05 09:04:06;;;;;;;3.77;2.67;;;;;;;31.23;39.34;99468.64;1745360;81;20998;-77
2022/07/05 09:06:38;;;;;;;7.25;2.58;;;;;;;31.32;38.09;99472.12;1745267;82;22087;-76
2022/07/05 09:09:06;;;;;;;4.05;2.62;;;;;;;31.36;38.81;99473.42;1745178;82;21117;-77
2022/07/05 09:11:41;;;;;;;10.85;2.20;;;;;;;31.42;38.16;99478.61;1745117;82;21010;-77
2022/07/05 09:14:21;;;;;;;6.33;2.72;;;;;;;31.39;37.50;99472.19;1745864;82;21148;-76
2022/07/05 09:16:48;;;;;;;6.87;2.20;;;;;;;31.31;37.91;99484.02;1745399;82;21498;-76
2022/07/05 09:19:14;;;;;;;4.25;2.80;;;;;;;31.24;38.62;99477.66;1745448;81;21469;-77
2022/07/05 09:21:41;;;;;;;5.85;2.25;;;;;;;31.19;38.31;99470.59;1745300;81;21265;-76
2022/07/05 09:24:09;;;;;;;3.90;2.37;;;;;;;31.14;38.01;99475.75;1745332;82;20997;-76
2022/07/05 09:26:46;;;;;;;7.97;2.00;;;;;;;31.09;37.70;99478.49;1745332;81;21040;-76
2022/07/05 09:29:18;;;;;;;4.50;2.00;;;;;;;31.10;37.74;99476.61;1745290;81;21060;-77
2022/07/05 09:31:49;;;;;;;2.50;2.02;;;;;;;31.19;38.39;99474.67;1745195;81;21128;-77
2022/07/05 09:34:17;;;;;;;4.62;2.10;;;;;;;31.24;36.86;99474.94;1745321;82;21136;-76
2022/07/05 09:36:55;;;;;;;4.10;2.33;;;;;;;31.26;38.55;99478.31;1745358;82;21120;-77
2022/07/05 09:39:36;;;;;;;6.22;1.98;;;;;;;31.26;36.76;99481.03;1745240;81;21570;-77
2022/07/05 09:42:23;;;;;;;10.95;2.42;;;;;;;31.23;38.02;99484.12;1745068;82;21575;-76
2022/07/05 09:44:55;;;;;;;7.83;2.33;;;;;;;31.22;38.04;99479.70;1745432;82;21570;-76
2022/07/05 09:47:23;;;;;;;3.25;2.25;;;;;;;31.20;38.45;99473.61;1745652;82;21776;-76
2022/07/05 09:49:56;;;;;;;19.87;17.35;;;;;;;31.23;38.49;99473.24;1745330;82;21032;-77
2022/07/05 09:52:32;;;;;;;3.20;2.90;;;;;;;31.34;38.84;99464.62;1745551;82;21610;-76
2022/07/05 09:55:19;;;;;;;2.72;2.40;;;;;;;31.41;37.02;99473.70;1745348;82;21075;-77
2022/07/05 09:57:50;;;;;;;3.10;2.20;;;;;;;31.51;36.27;99465.80;1686023;85;21126;-76
2022/07/05 10:00:18;;;;;;;5.03;2.30;;;;;;;31.66;36.45;99473.41;1685591;85;21942;-77
2022/07/05 10:02:53;;;;;;;7.20;2.83;;;;;;;31.80;36.66;99465.71;1715174;83;21067;-76
2022/07/05 10:05:23;;;;;;;4.42;2.50;;;;;;;31.92;35.28;99462.50;1684236;84;21170;-77
2022/07/05 10:07:54;;;;;;;4.72;2.50;;;;;;;31.97;35.53;99462.75;1756526;81;21050;-76
2022/07/05 10:10:29;;;;;;;5.35;2.40;;;;;;;32.04;34.84;99465.02;1755993;81;21003;-76
2022/07/05 10:12:58;;;;;;;4.90;2.60;;;;;;;32.07;33.66;99470.11;1755655;81;21111;-77
2022/07/05 10:15:27;;;;;;;6.17;2.40;;;;;;;32.03;34.17;99462.82;1756167;80;21023;-76
2022/07/05 10:18:07;;;;;;;5.17;2.12;;;;;;;32.03;33.52;99460.63;1756155;81;21035;-76
2022/07/05 10:20:44;;;;;;;3.58;2.15;;;;;;;31.95;33.80;99464.83;1755950;81;21063;-76
2022/07/05 10:23:17;;;;;;;4.05;2.12;;;;;;;31.86;34.25;99465.48;1756068;80;21090;-76
2022/07/05 10:25:48;;;;;;;2.70;2.27;;;;;;;31.78;33.67;99462.34;1755931;80;21180;-76
2022/07/05 10:28:16;;;;;;;4.10;2.42;;;;;;;31.75;34.76;99461.37;1756331;81;21051;-76
2022/07/05 10:30:45;;;;;;;8.60;2.27;;;;;;;31.78;33.92;99457.44;1755803;81;21077;-76
2022/07/05 10:33:16;;;;;;;4.35;2.20;;;;;;;31.79;33.56;99453.66;1756105;81;21090;-76
2022/07/05 10:35:43;;;;;;;2.67;2.20;;;;;;;31.87;34.25;99455.43;1755917;81;21122;-77
2022/07/05 10:38:10;;;;;;;5.75;2.45;;;;;;;32.01;34.29;99455.88;1756350;81;21107;-77
2022/07/05 10:40:37;;;;;;;4.50;2.05;;;;;;;32.16;33.81;99444.95;1775823;79;21011;-77
2022/07/05 10:43:06;;;;;;;2.98;2.20;;;;;;;32.31;34.51;99445.75;1805046;79;21368;-76
2022/07/05 10:45:38;;;;;;;5.65;2.35;;;;;;;32.40;33.70;99445.92;1805041;79;21571;-76
2022/07/05 10:48:22;;;;;;;5.62;2.30;;;;;;;32.49;32.29;99446.61;1781340;79;21600;-76
2022/07/05 10:51:14;;;;;;;3.67;2.10;;;;;;;32.62;32.71;99445.08;1805297;79;21074;-76
2022/07/05 10:53:51;;;;;;;2.98;2.17;;;;;;;32.80;32.20;99441.83;1804950;79;21019;-76
2022/07/05 10:56:17;;;;;;;2.75;2.10;;;;;;;32.86;29.34;99443.77;1802981;79;21045;-77
2022/07/05 10:58:46;;;;;;;5.85;2.30;;;;;;;32.73;29.63;99444.51;1805291;79;21015;-76
2022/07/05 11:01:24;;;;;;;2.20;2.00;;;;;;;32.65;30.22;99439.20;1805350;79;21495;-77
2022/07/05 11:04:05;;;;;;;5.40;1.98;;;;;;;32.69;31.39;99437.79;1805187;79;21144;-76
2022/07/05 11:06:43;;;;;;;5.72;1.85;;;;;;;32.76;31.09;99434.58;1804934;79;20988;-76
2022/07/05 11:09:18;;;;;;;4.08;2.20;;;;;;;32.73;29.88;99429.52;1804906;79;20956;-77
2022/07/05 11:11:53;;;;;;;3.62;2.30;;;;;;;32.66;30.98;99431.38;1805641;79;28655;-76
2022/07/05 11:14:26;;;;;;;2.42;2.22;;;;;;;32.57;32.80;99427.40;1805040;79;21038;-76
2022/07/05 11:17:22;;;;;;;4.78;2.20;;;;;;;32.56;31.70;99428.43;1805657;79;22340;-76
2022/07/05 11:20:21;;;;;;;3.37;2.30;;;;;;;32.56;31.57;99421.62;1804876;79;21043;-77
2022/07/05 11:23:09;;;;;;;3.87;2.20;;;;;;;32.52;31.71;99418.98;1798052;79;20975;-76
2022/07/05 11:25:40;;;;;;;5.75;2.17;;;;;;;32.51;32.54;99417.81;1805050;79;21003;-76
2022/07/05 11:28:16;;;;;;;3.27;2.30;;;;;;;32.51;32.79;99420.02;1805528;79;20963;-76
2022/07/05 11:30:51;;;;;;;3.40;2.33;;;;;;;32.42;33.35;99414.41;1804973;79;21474;-76
2022/07/05 11:33:43;;;;;;;4.85;2.25;;;;;;;32.38;33.81;99419.91;1805588;79;21581;-76
2022/07/05 11:36:25;;;;;;;6.90;2.58;;;;;;;32.39;34.00;99429.77;1805128;79;21050;-76
2022/07/05 11:39:15;;;;;;;2.65;2.10;;;;;;;32.39;34.03;99426.52;1809893;78;21014;-75
2022/07/05 11:41:43;;;;;;;6.85;2.40;;;;;;;32.36;33.68;99421.99;1805157;79;21590;-76
2022/07/05 11:44:10;;;;;;;5.33;2.15;;;;;;;32.32;33.79;99417.47;1805317;79;22212;-76
2022/07/05 11:46:37;;;;;;;2.83;2.50;;;;;;;32.36;34.50;99424.72;1804875;79;21050;-77
2022/07/05 11:49:04;;;;;;;4.50;2.58;;;;;;;32.34;33.15;99421.36;1805173;79;22054;-76